Time;durP1;ratioP1;P1;durP2;ratioP2;P2;SDS_P1;SDS_P2;PMS_P1;PMS_P2;Temp;Humidity;BMP_temperature;BMP_pressure;BME280_temperature;BME280_humidity;BME280_pressure;Samples;Min_cycle;Max_cycle;Signal;HPM_P1;HPM_P2
2022/03/26 00:00:10;;;;;;;34.92;26.58;;;10.70;99.90;;;;;;5044159;28;20438;-70
2022/03/26 00:02:36;;;;;;;44.00;29.75;;;10.70;99.90;;;;;;5043515;28;20140;-70
2022/03/26 00:05:02;;;;;;;32.38;25.98;;;10.70;99.90;;;;;;5041444;28;20029;-70
2022/03/26 00:07:28;;;;;;;33.10;26.60;;;10.60;99.90;;;;;;5040543;28;20037;-68
2022/03/26 00:09:54;;;;;;;40.60;29.40;;;10.50;99.90;;;;;;5031924;28;20040;-69
2022/03/26 00:12:20;;;;;;;40.85;28.65;;;10.50;99.90;;;;;;5029315;28;20044;-69
2022/03/26 00:14:46;;;;;;;34.10;27.23;;;10.50;99.90;;;;;;5028567;28;20155;-69
2022/03/26 00:17:12;;;;;;;32.83;25.10;;;10.60;99.90;;;;;;5031565;28;20129;-69
2022/03/26 00:19:38;;;;;;;31.20;23.95;;;10.90;99.70;;;;;;5031510;28;20049;-70
2022/03/26 00:22:04;;;;;;;40.63;24.40;;;11.50;97.80;;;;;;5033492;28;20045;-68
2022/03/26 00:24:30;;;;;;;28.83;23.35;;;12.00;97.40;;;;;;5041317;28;20086;-70
2022/03/26 00:26:56;;;;;;;29.98;24.65;;;12.00;97.60;;;;;;5046358;28;20055;-70
2022/03/26 00:29:22;;;;;;;35.50;22.77;;;11.90;97.00;;;;;;5049483;28;20121;-70
2022/03/26 00:31:48;;;;;;;27.95;23.52;;;11.70;96.90;;;;;;5048552;28;20093;-69
2022/03/26 00:34:13;;;;;;;30.17;24.08;;;11.70;96.70;;;;;;5044478;28;20339;-70
2022/03/26 00:36:40;;;;;;;24.88;20.38;;;11.60;96.70;;;;;;5045217;28;20029;-71
2022/03/26 00:39:06;;;;;;;29.95;22.13;;;11.80;96.60;;;;;;5042794;28;20103;-70
2022/03/26 00:41:32;;;;;;;33.50;21.92;;;12.10;96.10;;;;;;5039555;28;20040;-71
2022/03/26 00:44:04;;;;;;;27.65;22.05;;;12.20;95.60;;;;;;5043591;28;20158;-70
2022/03/26 00:49:41;;;;;;;30.92;21.10;;;12.50;95.00;;;;;;5047221;28;19917;-72
2022/03/26 00:52:40;;;;;;;28.17;22.33;;;12.60;94.80;;;;;;5042576;28;20024;-72
2022/03/26 00:55:08;;;;;;;31.55;21.52;;;12.60;94.80;;;;;;5046833;28;20021;-70
2022/03/26 00:57:35;;;;;;;27.88;20.38;;;12.70;94.70;;;;;;5051506;28;20024;-69
2022/03/26 01:00:00;;;;;;;30.35;21.98;;;12.70;94.30;;;;;;5049496;28;20075;-70
2022/03/26 01:05:38;;;;;;;32.03;23.00;;;12.90;94.10;;;;;;5047406;28;20036;-71
2022/03/26 01:08:23;;;;;;;32.45;22.60;;;12.90;94.00;;;;;;5054405;28;20108;-72
2022/03/26 01:10:49;;;;;;;29.55;22.77;;;13.00;93.80;;;;;;5049476;28;20035;-70
2022/03/26 01:13:14;;;;;;;44.88;22.20;;;12.90;93.90;;;;;;5048188;28;20021;-69
2022/03/26 01:15:41;;;;;;;27.42;21.80;;;12.70;94.10;;;;;;5049462;28;20021;-69
2022/03/26 01:18:06;;;;;;;32.60;23.55;;;12.50;94.20;;;;;;5048004;28;20147;-69
2022/03/26 01:20:33;;;;;;;30.35;22.75;;;12.40;94.30;;;;;;5044520;28;20022;-68
2022/03/26 01:22:59;;;;;;;34.78;22.10;;;12.30;94.40;;;;;;5046885;28;20533;-70
2022/03/26 01:25:25;;;;;;;28.95;23.52;;;12.20;94.70;;;;;;5048338;28;20025;-71
2022/03/26 01:27:52;;;;;;;37.95;21.90;;;12.30;94.80;;;;;;5047359;28;20025;-71
2022/03/26 01:30:18;;;;;;;32.67;23.20;;;12.70;94.30;;;;;;5040887;28;20099;-70
2022/03/26 01:32:44;;;;;;;27.27;22.20;;;13.20;93.70;;;;;;5039227;28;20477;-69
2022/03/26 01:35:11;;;;;;;28.73;22.50;;;13.30;93.40;;;;;;5042852;28;20081;-70
2022/03/26 01:37:36;;;;;;;28.00;21.50;;;13.40;93.30;;;;;;5041481;28;20477;-70
2022/03/26 01:40:04;;;;;;;31.30;22.70;;;13.30;93.30;;;;;;5041233;28;20061;-71
2022/03/26 01:42:30;;;;;;;24.70;20.85;;;13.30;93.30;;;;;;5043361;28;20049;-71
2022/03/26 01:44:56;;;;;;;26.35;21.25;;;13.30;93.30;;;;;;5048768;28;20044;-70
2022/03/26 01:47:22;;;;;;;24.35;21.67;;;13.20;93.30;;;;;;5043832;28;20034;-70
2022/03/26 01:49:47;;;;;;;26.90;23.60;;;13.20;93.30;;;;;;5045073;28;20028;-68
2022/03/26 01:52:13;;;;;;;28.52;20.90;;;13.20;93.50;;;;;;5047135;28;20490;-70
2022/03/26 01:54:40;;;;;;;32.10;23.50;;;13.30;93.30;;;;;;5048502;28;20475;-70
2022/03/26 01:57:07;;;;;;;28.98;21.73;;;13.30;93.30;;;;;;5045192;28;20032;-71
2022/03/26 01:59:33;;;;;;;28.90;21.92;;;13.30;93.30;;;;;;5047443;28;20340;-69
2022/03/26 02:01:59;;;;;;;27.92;22.08;;;13.40;93.30;;;;;;5051153;28;20048;-70
2022/03/26 02:04:25;;;;;;;29.70;21.77;;;13.30;93.60;;;;;;5042362;28;20036;-69
2022/03/26 02:06:51;;;;;;;28.77;22.63;;;13.10;93.80;;;;;;5050187;28;20452;-69
2022/03/26 02:09:16;;;;;;;29.80;22.13;;;13.20;93.50;;;;;;5040610;28;20043;-69
2022/03/26 02:11:44;;;;;;;28.08;21.75;;;13.20;93.50;;;;;;5052070;28;20138;-69
2022/03/26 02:14:11;;;;;;;25.23;20.77;;;13.30;93.50;;;;;;5064429;28;20032;-69
2022/03/26 02:16:41;;;;;;;38.60;22.60;;;13.30;93.50;;;;;;5066985;28;20013;-69
2022/03/26 02:19:08;;;;;;;30.42;22.85;;;13.30;93.50;;;;;;5061553;28;20032;-71
2022/03/26 02:21:35;;;;;;;32.03;22.90;;;13.30;93.60;;;;;;5068259;28;20028;-70
2022/03/26 02:24:06;;;;;;;30.73;22.45;;;13.30;93.50;;;;;;5062298;28;20340;-69
2022/03/26 02:26:32;;;;;;;27.33;20.58;;;13.40;93.30;;;;;;5063342;28;20036;-69
2022/03/26 02:29:07;;;;;;;29.13;21.73;;;13.40;93.30;;;;;;5045158;28;20028;-70
2022/03/26 02:31:33;;;;;;;28.55;20.73;;;13.50;93.40;;;;;;5041062;28;20026;-72
2022/03/26 02:33:59;;;;;;;25.55;21.55;;;13.50;93.30;;;;;;5046275;28;20032;-70
2022/03/26 02:36:25;;;;;;;29.60;21.40;;;13.50;93.20;;;;;;5038298;28;20021;-69
2022/03/26 02:38:50;;;;;;;25.75;18.85;;;13.60;93.10;;;;;;5043503;28;20032;-70
2022/03/26 02:41:16;;;;;;;26.83;20.77;;;13.60;93.10;;;;;;5047337;28;20016;-69
2022/03/26 02:43:42;;;;;;;23.92;21.27;;;13.60;93.20;;;;;;5046872;28;20036;-69
2022/03/26 02:46:08;;;;;;;27.77;22.60;;;13.50;93.20;;;;;;5045395;28;20028;-69
2022/03/26 02:48:35;;;;;;;28.10;20.90;;;13.50;93.20;;;;;;5043756;28;20036;-70
2022/03/26 02:51:01;;;;;;;27.75;21.10;;;13.50;93.30;;;;;;5046715;28;20082;-69
2022/03/26 02:53:27;;;;;;;38.65;25.63;;;13.50;93.10;;;;;;5043600;28;20021;-69
2022/03/26 02:55:53;;;;;;;26.95;21.27;;;13.50;93.20;;;;;;5044209;28;20037;-68
2022/03/26 02:58:19;;;;;;;30.17;21.60;;;13.50;93.50;;;;;;5043572;28;20056;-71
2022/03/26 03:00:45;;;;;;;30.73;20.65;;;13.50;93.10;;;;;;5049805;28;20021;-70
2022/03/26 03:03:12;;;;;;;34.17;22.92;;;13.50;93.20;;;;;;5046782;28;20044;-70
2022/03/26 03:05:38;;;;;;;34.22;23.23;;;13.40;93.20;;;;;;5048054;28;20021;-69
2022/03/26 03:08:03;;;;;;;27.75;21.90;;;13.40;93.10;;;;;;5046912;28;20407;-69
2022/03/26 03:10:30;;;;;;;28.08;21.40;;;13.40;93.20;;;;;;5046094;28;20113;-70
2022/03/26 03:12:56;;;;;;;31.38;22.42;;;13.30;93.20;;;;;;5050831;28;20036;-70
2022/03/26 03:15:22;;;;;;;30.23;21.20;;;13.30;93.20;;;;;;5050099;28;20398;-69
2022/03/26 03:17:49;;;;;;;30.42;22.13;;;13.20;93.40;;;;;;5044350;28;20028;-69
2022/03/26 03:20:15;;;;;;;25.45;20.23;;;13.20;93.40;;;;;;5039553;28;20020;-70
2022/03/26 03:22:42;;;;;;;29.25;21.67;;;13.30;93.30;;;;;;5046707;28;20059;-69
2022/03/26 03:25:10;;;;;;;26.88;20.75;;;13.30;93.20;;;;;;5044084;28;20474;-69
2022/03/26 03:27:36;;;;;;;27.42;20.17;;;13.30;93.20;;;;;;5042404;28;20465;-69
2022/03/26 03:30:06;;;;;;;29.50;20.70;;;13.30;93.30;;;;;;5062123;28;20091;-70
2022/03/26 03:32:32;;;;;;;27.13;22.13;;;13.20;93.50;;;;;;5048575;28;20021;-69
2022/03/26 03:34:57;;;;;;;27.13;21.30;;;13.10;93.50;;;;;;5050885;28;20498;-69
2022/03/26 03:37:26;;;;;;;36.92;22.65;;;13.00;94.00;;;;;;5046638;28;20051;-69
2022/03/26 03:39:52;;;;;;;27.13;21.85;;;13.00;93.70;;;;;;5046596;28;20052;-69
2022/03/26 03:42:18;;;;;;;25.90;20.00;;;13.00;93.60;;;;;;5043767;28;20044;-69
2022/03/26 03:44:43;;;;;;;30.60;20.65;;;13.00;93.60;;;;;;5046422;28;20036;-68
2022/03/26 03:47:09;;;;;;;27.90;21.17;;;13.00;93.60;;;;;;5049942;28;20033;-71
2022/03/26 03:49:35;;;;;;;26.58;20.25;;;13.00;93.60;;;;;;5042367;28;20017;-69
2022/03/26 03:52:04;;;;;;;26.33;19.80;;;13.10;93.50;;;;;;5044108;28;20063;-70
2022/03/26 03:54:30;;;;;;;26.55;21.95;;;13.20;93.40;;;;;;5039509;28;20025;-71
2022/03/26 03:56:56;;;;;;;27.85;20.67;;;13.20;93.40;;;;;;5043219;28;20025;-69
2022/03/26 03:59:22;;;;;;;31.83;20.98;;;13.20;93.40;;;;;;5045023;28;20021;-70
2022/03/26 04:01:48;;;;;;;30.90;17.80;;;13.20;93.20;;;;;;5043271;28;20112;-70
2022/03/26 04:04:13;;;;;;;32.10;20.38;;;13.20;93.30;;;;;;5039907;28;20021;-72
2022/03/26 04:06:39;;;;;;;26.65;20.35;;;13.20;93.30;;;;;;5031157;28;20472;-69
2022/03/26 04:09:05;;;;;;;36.95;21.85;;;13.20;93.20;;;;;;5031583;28;20024;-69
2022/03/26 04:11:30;;;;;;;29.90;20.45;;;13.20;93.20;;;;;;5041021;28;20444;-69
2022/03/26 04:13:56;;;;;;;27.85;20.20;;;13.20;93.20;;;;;;5037532;28;20657;-69
2022/03/26 04:16:23;;;;;;;29.95;21.50;;;13.20;93.20;;;;;;5031469;28;20029;-71
2022/03/26 04:18:49;;;;;;;27.08;19.27;;;13.20;93.20;;;;;;5043900;28;20034;-70
2022/03/26 04:21:16;;;;;;;28.90;20.40;;;13.20;93.20;;;;;;5044040;28;20047;-69
2022/03/26 04:23:42;;;;;;;28.02;20.10;;;13.20;93.30;;;;;;5034593;28;20064;-69
2022/03/26 04:26:08;;;;;;;34.83;21.92;;;13.20;93.30;;;;;;5048421;28;20025;-69
2022/03/26 04:28:43;;;;;;;31.10;19.90;;;13.20;93.20;;;;;;5049948;28;20037;-70
2022/03/26 04:31:13;;;;;;;28.08;21.30;;;13.10;93.20;;;;;;5048343;28;20103;-72
2022/03/26 04:33:38;;;;;;;25.65;19.70;;;13.10;93.30;;;;;;5053079;28;20031;-69
2022/03/26 04:36:04;;;;;;;27.02;20.48;;;13.10;93.20;;;;;;5061276;28;20081;-70
2022/03/26 04:38:30;;;;;;;28.27;21.35;;;13.20;93.20;;;;;;5063141;28;20017;-69
2022/03/26 04:40:55;;;;;;;25.17;20.20;;;13.20;93.00;;;;;;5064503;28;20017;-69
2022/03/26 04:43:23;;;;;;;25.23;21.25;;;13.20;93.00;;;;;;5061725;28;20035;-69
2022/03/26 04:45:49;;;;;;;30.08;21.15;;;13.20;93.10;;;;;;5042172;28;20040;-70
2022/03/26 04:48:15;;;;;;;21.20;17.92;;;13.20;93.00;;;;;;5051057;28;20028;-69
2022/03/26 04:50:41;;;;;;;28.75;19.40;;;13.20;92.90;;;;;;5050389;28;20045;-68
2022/03/26 04:53:06;;;;;;;30.58;19.85;;;13.20;92.90;;;;;;5043810;28;20021;-70
2022/03/26 04:55:32;;;;;;;28.50;20.27;;;13.20;92.90;;;;;;5053367;28;20031;-70
2022/03/26 04:57:58;;;;;;;26.45;21.05;;;13.20;92.90;;;;;;5055003;28;20031;-69
2022/03/26 05:00:24;;;;;;;25.88;20.58;;;13.20;92.90;;;;;;5045054;28;20029;-70
2022/03/26 05:02:50;;;;;;;31.83;19.85;;;13.20;92.90;;;;;;5039575;28;20021;-69
2022/03/26 05:05:16;;;;;;;28.35;18.88;;;13.20;92.90;;;;;;5042332;28;20403;-69
2022/03/26 05:07:48;;;;;;;24.25;18.40;;;13.20;93.00;;;;;;5040992;28;20036;-70
2022/03/26 05:10:23;;;;;;;24.77;19.13;;;13.20;92.90;;;;;;5039608;28;20040;-69
2022/03/26 05:12:50;;;;;;;29.00;17.83;;;13.20;93.00;;;;;;5047280;28;20155;-69
2022/03/26 05:15:17;;;;;;;31.58;19.00;;;13.20;92.90;;;;;;5042330;28;20040;-69
2022/03/26 05:17:43;;;;;;;25.02;18.90;;;13.20;92.90;;;;;;5051905;28;20028;-71
2022/03/26 05:20:12;;;;;;;20.83;17.70;;;13.20;92.90;;;;;;5049123;28;20033;-68
2022/03/26 05:22:39;;;;;;;23.42;19.05;;;13.20;92.80;;;;;;5037873;28;20491;-70
2022/03/26 05:25:06;;;;;;;22.48;18.95;;;13.30;92.70;;;;;;5038266;28;20378;-70
2022/03/26 05:27:32;;;;;;;23.58;17.08;;;13.40;92.60;;;;;;5044124;28;20041;-70
2022/03/26 05:29:59;;;;;;;32.92;19.77;;;13.40;92.60;;;;;;5038096;28;20095;-70
2022/03/26 05:32:25;;;;;;;24.42;19.20;;;13.40;92.50;;;;;;5028833;28;20517;-69
2022/03/26 05:34:51;;;;;;;25.58;19.70;;;13.50;92.60;;;;;;5044049;28;20025;-68
2022/03/26 05:37:19;;;;;;;27.92;21.50;;;13.50;92.60;;;;;;5038698;28;20603;-70
2022/03/26 05:39:45;;;;;;;23.98;18.70;;;13.50;92.70;;;;;;5048147;28;20035;-71
2022/03/26 05:42:12;;;;;;;41.42;21.42;;;13.50;92.60;;;;;;5048886;28;20616;-69
2022/03/26 05:44:37;;;;;;;25.45;19.73;;;13.50;92.60;;;;;;5041686;28;20052;-69
2022/03/26 05:47:03;;;;;;;23.48;18.63;;;13.60;92.60;;;;;;5043998;28;20502;-70
2022/03/26 05:49:29;;;;;;;28.85;20.73;;;13.70;92.50;;;;;;5047345;28;20028;-70
2022/03/26 05:51:55;;;;;;;25.48;19.35;;;13.70;92.40;;;;;;5041594;28;20671;-70
2022/03/26 05:54:21;;;;;;;24.67;19.60;;;13.80;92.40;;;;;;5040148;28;20029;-69
2022/03/26 05:56:52;;;;;;;33.53;22.80;;;13.80;92.40;;;;;;5039607;28;20054;-72
2022/03/26 05:59:24;;;;;;;30.35;18.67;;;13.90;92.40;;;;;;5042099;28;20032;-70
2022/03/26 06:01:50;;;;;;;30.60;20.60;;;14.00;92.30;;;;;;5045111;28;20037;-69
2022/03/26 06:04:17;;;;;;;28.25;21.02;;;14.00;92.30;;;;;;5048828;28;20105;-69
2022/03/26 06:06:43;;;;;;;25.48;20.08;;;14.00;92.10;;;;;;5038720;28;20100;-69
2022/03/26 06:09:10;;;;;;;28.65;19.05;;;14.10;92.10;;;;;;5041911;28;20031;-71
2022/03/26 06:11:36;;;;;;;24.98;20.20;;;14.10;92.10;;;;;;5046366;28;20027;-70
2022/03/26 06:14:02;;;;;;;22.13;19.05;;;14.10;92.10;;;;;;5041666;28;20033;-72
2022/03/26 06:16:28;;;;;;;24.20;19.77;;;14.20;92.20;;;;;;5044843;28;20026;-69
2022/03/26 06:18:54;;;;;;;32.47;19.48;;;14.30;92.10;;;;;;5044848;28;20048;-69
2022/03/26 06:21:20;;;;;;;23.08;20.00;;;14.30;92.10;;;;;;5038962;28;20379;-70
2022/03/26 06:23:46;;;;;;;25.33;19.95;;;14.30;92.30;;;;;;5038736;28;20029;-70
2022/03/26 06:26:12;;;;;;;35.05;19.15;;;14.40;92.00;;;;;;5039033;28;20422;-70
2022/03/26 06:28:38;;;;;;;28.10;20.75;;;14.50;91.90;;;;;;5039983;28;20450;-71
2022/03/26 06:31:04;;;;;;;25.83;20.05;;;14.50;91.80;;;;;;5042399;28;20048;-69
2022/03/26 06:33:30;;;;;;;24.52;18.70;;;14.60;91.80;;;;;;5033131;28;20040;-70
2022/03/26 06:35:56;;;;;;;30.05;20.17;;;14.60;91.80;;;;;;5040795;28;20029;-70
2022/03/26 06:38:21;;;;;;;26.13;19.40;;;14.70;91.70;;;;;;5044239;28;20033;-70
2022/03/26 06:40:48;;;;;;;33.33;20.13;;;14.70;91.70;;;;;;5050308;28;20506;-70
2022/03/26 06:43:14;;;;;;;24.15;18.80;;;14.80;91.70;;;;;;5045434;28;20403;-70
2022/03/26 06:45:40;;;;;;;26.00;20.20;;;14.90;91.60;;;;;;5049476;28;20036;-70
2022/03/26 06:48:07;;;;;;;22.75;18.83;;;14.90;91.80;;;;;;5044497;28;20360;-70
2022/03/26 06:50:33;;;;;;;25.20;19.33;;;15.00;91.40;;;;;;5052000;28;20063;-72
2022/03/26 06:52:59;;;;;;;23.85;19.15;;;15.10;91.30;;;;;;5049516;28;20499;-73
2022/03/26 06:55:25;;;;;;;31.40;18.85;;;15.20;91.20;;;;;;5045268;28;20160;-71
2022/03/26 06:57:51;;;;;;;32.65;20.33;;;15.30;91.10;;;;;;5043086;28;20025;-73
2022/03/26 07:00:17;;;;;;;26.95;18.48;;;15.40;90.90;;;;;;5049647;28;20037;-70
2022/03/26 07:02:44;;;;;;;31.52;20.80;;;15.50;91.00;;;;;;5044229;28;20053;-72
2022/03/26 07:05:11;;;;;;;24.42;18.48;;;15.50;91.00;;;;;;5041507;28;20044;-70
2022/03/26 07:07:37;;;;;;;29.05;19.35;;;15.50;90.80;;;;;;5042769;28;20044;-71
2022/03/26 07:10:04;;;;;;;28.27;19.77;;;15.60;90.90;;;;;;5044728;28;20060;-70
2022/03/26 07:12:30;;;;;;;25.15;18.90;;;15.70;90.70;;;;;;5045608;28;20025;-70
2022/03/26 07:14:56;;;;;;;23.23;18.00;;;15.80;90.50;;;;;;5047093;28;20017;-71
2022/03/26 07:17:22;;;;;;;27.02;18.58;;;15.90;90.40;;;;;;5046249;28;20028;-70
2022/03/26 07:19:48;;;;;;;24.92;18.40;;;16.00;90.30;;;;;;5050539;28;20565;-71
2022/03/26 07:22:14;;;;;;;26.60;17.40;;;16.10;90.20;;;;;;5045734;28;20033;-71
2022/03/26 07:24:40;;;;;;;22.73;18.50;;;16.30;89.70;;;;;;5043620;28;20097;-71
2022/03/26 07:27:06;;;;;;;18.90;16.88;;;16.30;89.50;;;;;;5046985;28;20029;-71
2022/03/26 07:29:38;;;;;;;25.52;18.35;;;16.40;89.00;;;;;;5046473;28;20025;-66
2022/03/26 07:32:06;;;;;;;21.45;18.83;;;16.50;88.80;;;;;;5050077;28;20028;-63
2022/03/26 07:34:31;;;;;;;22.27;17.63;;;16.60;88.60;;;;;;5042799;28;20029;-63
2022/03/26 07:37:12;;;;;;;21.08;16.33;;;16.70;88.40;;;;;;5047627;28;20402;-64
2022/03/26 07:39:47;;;;;;;21.90;18.75;;;16.80;87.90;;;;;;5048763;28;20040;-65
2022/03/26 07:42:28;;;;;;;25.48;18.13;;;16.80;88.80;;;;;;5048062;28;20035;-63
2022/03/26 07:44:58;;;;;;;20.75;15.65;;;17.00;88.00;;;;;;5049594;28;20104;-65
2022/03/26 07:47:24;;;;;;;27.02;18.30;;;17.20;86.10;;;;;;5044222;28;20083;-66
2022/03/26 07:49:50;;;;;;;21.42;16.55;;;17.30;85.60;;;;;;5045830;28;20029;-63
2022/03/26 07:52:16;;;;;;;23.73;16.67;;;17.40;84.90;;;;;;5043558;28;20047;-64
2022/03/26 07:54:42;;;;;;;22.98;17.63;;;17.40;85.60;;;;;;5042661;28;20017;-63
2022/03/26 07:57:23;;;;;;;24.90;15.98;;;17.50;85.90;;;;;;5036155;28;20333;-64
2022/03/26 07:59:59;;;;;;;;;;;17.60;85.20;;;;;;5049696;28;20029;-66
2022/03/26 08:02:33;;;;;;;23.70;16.55;;;17.70;84.20;;;;;;5052840;28;19908;-64
2022/03/26 08:05:06;;;;;;;21.65;17.00;;;17.80;84.60;;;;;;5051028;28;20487;-64
2022/03/26 08:07:33;;;;;;;27.63;16.98;;;17.80;84.20;;;;;;5045315;28;20040;-64
2022/03/26 08:10:01;;;;;;;19.27;15.55;;;17.90;84.10;;;;;;5048289;28;20267;-65
2022/03/26 08:12:27;;;;;;;19.75;16.13;;;18.00;83.00;;;;;;5046711;28;20032;-65
2022/03/26 08:14:52;;;;;;;29.33;16.13;;;18.10;83.50;;;;;;5060231;28;20032;-63
2022/03/26 08:17:23;;;;;;;25.95;16.23;;;18.10;83.50;;;;;;5032144;28;20023;-64
2022/03/26 08:19:49;;;;;;;18.27;16.20;;;18.30;83.10;;;;;;5036044;28;20041;-65
2022/03/26 08:22:15;;;;;;;24.48;15.90;;;18.40;82.20;;;;;;5030813;28;20036;-66
2022/03/26 08:24:41;;;;;;;19.58;15.77;;;18.50;81.50;;;;;;5031851;28;20025;-63
2022/03/26 08:27:07;;;;;;;18.35;16.40;;;18.60;79.80;;;;;;5045958;28;20399;-65
2022/03/26 08:29:33;;;;;;;17.88;15.45;;;18.70;79.90;;;;;;5042472;28;20017;-63
2022/03/26 08:32:02;;;;;;;17.85;16.08;;;18.80;80.40;;;;;;5040166;28;20380;-64
2022/03/26 08:34:27;;;;;;;19.23;17.15;;;18.90;80.20;;;;;;5042770;28;20028;-63
2022/03/26 08:36:53;;;;;;;24.65;16.65;;;18.90;79.20;;;;;;5042990;28;20010;-62
2022/03/26 08:39:19;;;;;;;17.85;15.32;;;19.00;77.90;;;;;;5030959;28;20438;-63
2022/03/26 08:41:45;;;;;;;17.20;15.32;;;19.20;76.90;;;;;;5031937;28;20028;-63
2022/03/26 08:44:11;;;;;;;17.92;15.25;;;19.20;77.30;;;;;;5050033;28;20027;-62
2022/03/26 08:46:37;;;;;;;17.90;15.45;;;19.30;76.50;;;;;;5045417;28;20033;-63
2022/03/26 08:49:03;;;;;;;21.85;16.42;;;19.20;75.00;;;;;;5042187;28;20052;-62
2022/03/26 08:51:29;;;;;;;17.92;14.68;;;19.30;75.10;;;;;;5041166;28;20574;-62
2022/03/26 08:53:55;;;;;;;22.42;15.20;;;19.40;75.00;;;;;;5045913;28;20029;-63
2022/03/26 08:56:20;;;;;;;22.73;17.08;;;19.40;75.00;;;;;;5040693;28;20028;-63
2022/03/26 08:58:46;;;;;;;16.98;14.85;;;19.50;75.40;;;;;;5049611;28;20052;-64
2022/03/26 09:01:12;;;;;;;18.88;15.95;;;19.50;74.90;;;;;;5038906;28;20035;-64
2022/03/26 09:03:38;;;;;;;18.77;16.02;;;19.50;74.90;;;;;;5042316;28;20025;-64
2022/03/26 09:06:07;;;;;;;19.95;15.38;;;19.50;74.20;;;;;;5041845;28;20142;-63
2022/03/26 09:08:33;;;;;;;18.48;14.43;;;19.60;74.20;;;;;;5049421;28;20021;-63
2022/03/26 09:10:59;;;;;;;18.08;16.13;;;19.70;74.00;;;;;;5041473;28;20017;-64
2022/03/26 09:13:25;;;;;;;19.95;15.65;;;19.60;73.50;;;;;;5049805;28;20025;-65
2022/03/26 09:15:51;;;;;;;21.35;16.38;;;19.70;73.60;;;;;;5049363;28;20029;-63
2022/03/26 09:18:17;;;;;;;16.92;13.55;;;19.80;73.70;;;;;;5041763;28;20028;-64
2022/03/26 09:20:42;;;;;;;22.65;15.75;;;19.90;73.30;;;;;;5042320;28;20040;-64
2022/03/26 09:23:08;;;;;;;19.95;15.18;;;20.10;71.80;;;;;;5040119;28;20487;-64
2022/03/26 09:25:35;;;;;;;19.73;16.50;;;20.10;71.60;;;;;;5050741;28;20033;-63
2022/03/26 09:28:01;;;;;;;18.50;15.80;;;20.20;69.30;;;;;;5048913;28;20074;-64
2022/03/26 09:30:27;;;;;;;33.28;16.70;;;20.20;69.40;;;;;;5041912;28;20451;-64
2022/03/26 09:32:53;;;;;;;19.08;17.10;;;20.20;69.10;;;;;;5046215;28;20116;-64
2022/03/26 09:35:18;;;;;;;23.95;15.75;;;20.20;69.20;;;;;;5043789;28;20024;-64
2022/03/26 09:37:44;;;;;;;18.98;15.95;;;20.30;68.40;;;;;;5029078;28;20033;-65
2022/03/26 09:40:11;;;;;;;17.67;15.90;;;20.40;67.80;;;;;;5035847;28;20024;-64
2022/03/26 09:42:39;;;;;;;20.13;16.88;;;20.40;67.70;;;;;;5046856;28;20029;-65
2022/03/26 09:45:06;;;;;;;17.95;15.48;;;20.40;67.40;;;;;;5038685;28;20029;-65
2022/03/26 09:47:35;;;;;;;22.17;14.05;;;20.20;76.20;;;;;;5038140;28;20057;-63
2022/03/26 09:50:03;;;;;;;22.80;14.02;;;20.10;84.80;;;;;;5041609;28;20112;-64
2022/03/26 09:52:29;;;;;;;19.05;14.18;;;19.90;89.00;;;;;;5039269;28;20038;-64
2022/03/26 09:54:57;;;;;;;18.20;15.30;;;19.60;88.70;;;;;;5042643;28;20029;-64
2022/03/26 09:57:23;;;;;;;19.38;14.05;;;19.30;86.30;;;;;;5048041;28;20037;-65
2022/03/26 09:59:48;;;;;;;17.08;13.98;;;19.00;89.90;;;;;;5041157;28;20021;-65
2022/03/26 10:02:16;;;;;;;21.92;14.18;;;18.80;90.70;;;;;;5039684;28;20638;-65
2022/03/26 10:04:43;;;;;;;19.77;13.55;;;18.70;91.40;;;;;;5043188;28;20047;-65
2022/03/26 10:07:09;;;;;;;17.75;15.23;;;18.60;92.40;;;;;;5042899;28;20048;-65
2022/03/26 10:09:37;;;;;;;22.60;14.32;;;18.50;94.20;;;;;;5044200;28;20499;-64
2022/03/26 10:12:10;;;;;;;25.17;15.10;;;18.50;95.10;;;;;;5046392;28;20455;-64
2022/03/26 10:14:47;;;;;;;18.73;14.30;;;18.40;95.10;;;;;;5049390;28;20044;-65
2022/03/26 10:17:15;;;;;;;18.67;15.32;;;18.30;95.10;;;;;;5038908;28;20025;-64
2022/03/26 10:19:48;;;;;;;25.90;16.00;;;18.30;94.50;;;;;;5043869;28;20029;-65
2022/03/26 10:22:33;;;;;;;17.38;14.50;;;18.30;97.00;;;;;;5051870;28;20437;-64
2022/03/26 10:25:10;;;;;;;22.33;14.68;;;18.30;95.50;;;;;;5043617;28;20658;-65
2022/03/26 10:27:50;;;;;;;16.55;13.70;;;18.10;94.50;;;;;;5053409;28;20138;-64
2022/03/26 10:32:38;;;;;;;23.20;15.32;;;18.10;94.20;;;;;;5050350;28;20021;-64
2022/03/26 10:33:30;;;;;;;18.10;14.50;;;18.10;94.50;;;;;;5044920;28;20145;-64
2022/03/26 10:35:57;;;;;;;;;;;18.20;94.60;;;;;;5044526;28;20025;-64
2022/03/26 10:38:41;;;;;;;21.95;15.18;;;18.30;94.70;;;;;;5048411;28;19932;-64
2022/03/26 10:41:08;;;;;;;23.20;14.95;;;18.50;93.80;;;;;;5052042;28;20071;-64
2022/03/26 10:43:35;;;;;;;19.23;14.57;;;18.60;92.80;;;;;;5043238;28;20020;-65
2022/03/26 10:46:02;;;;;;;18.58;14.75;;;18.60;93.70;;;;;;5052591;28;20036;-65
2022/03/26 10:48:32;;;;;;;31.45;13.95;;;18.50;92.70;;;;;;5042109;28;20062;-65
2022/03/26 10:51:06;;;;;;;22.20;13.55;;;18.60;91.70;;;;;;5042223;28;20117;-64
2022/03/26 10:53:39;;;;;;;22.02;13.48;;;18.70;90.70;;;;;;5042446;28;20033;-65
2022/03/26 10:56:13;;;;;;;22.27;14.55;;;18.80;88.10;;;;;;5040836;28;20033;-64
2022/03/26 10:58:40;;;;;;;19.95;12.40;;;18.90;86.00;;;;;;5031257;28;20404;-64
2022/03/26 11:01:06;;;;;;;16.08;14.45;;;19.00;83.20;;;;;;5040635;28;20391;-64
2022/03/26 11:03:34;;;;;;;21.98;14.80;;;19.10;80.70;;;;;;5044186;28;20024;-64
2022/03/26 11:06:01;;;;;;;26.35;15.88;;;19.30;83.60;;;;;;5052626;28;20729;-64
2022/03/26 11:08:32;;;;;;;23.27;15.05;;;19.30;93.10;;;;;;5052920;28;20586;-63
2022/03/26 11:11:08;;;;;;;22.15;14.57;;;19.20;91.70;;;;;;5047201;28;20404;-64
2022/03/26 11:13:43;;;;;;;27.77;14.55;;;19.10;91.90;;;;;;5042798;28;20021;-64
2022/03/26 11:16:21;;;;;;;14.93;13.35;;;19.00;89.30;;;;;;5051861;28;20029;-64
2022/03/26 11:19:08;;;;;;;13.98;12.45;;;19.00;88.90;;;;;;5045853;28;20052;-64
2022/03/26 11:22:21;;;;;;;15.23;13.07;;;18.80;84.80;;;;;;5038515;28;20021;-64
2022/03/26 11:25:05;;;;;;;17.40;13.05;;;18.60;85.80;;;;;;5036061;28;20059;-65
2022/03/26 11:27:53;;;;;;;24.48;15.95;;;18.60;85.50;;;;;;5051689;28;20021;-63
2022/03/26 11:30:47;;;;;;;30.85;15.40;;;18.60;87.40;;;;;;5039575;28;20075;-64
2022/03/26 11:33:17;;;;;;;17.42;15.65;;;18.70;84.80;;;;;;5040498;28;20064;-64
2022/03/26 11:35:58;;;;;;;17.38;13.82;;;18.80;87.80;;;;;;5030871;28;20082;-66
2022/03/26 11:38:28;;;;;;;16.10;13.80;;;18.90;86.40;;;;;;5032105;28;20025;-65
2022/03/26 11:41:02;;;;;;;14.93;13.35;;;19.00;87.30;;;;;;5036321;28;20059;-65
2022/03/26 11:43:43;;;;;;;17.35;11.70;;;19.10;85.80;;;;;;5042498;28;20380;-61
2022/03/26 11:51:58;;;;;;;25.40;13.45;;;19.00;87.10;;;;;;5045432;28;20140;-62
2022/03/26 11:54:24;;;;;;;17.88;15.10;;;18.90;87.90;;;;;;5032195;28;20095;-65
2022/03/26 11:57:07;;;;;;;23.05;14.65;;;18.80;86.30;;;;;;5036344;28;20391;-63
2022/03/26 11:59:37;;;;;;;16.02;14.32;;;18.90;89.10;;;;;;5040968;28;20032;-63
2022/03/26 12:02:15;;;;;;;23.65;16.00;;;18.90;88.20;;;;;;5043736;28;20103;-62
2022/03/26 12:04:59;;;;;;;16.02;14.13;;;18.90;87.30;;;;;;5044047;28;20071;-62
2022/03/26 12:07:29;;;;;;;16.13;14.52;;;18.70;87.00;;;;;;5051108;28;20479;-62
2022/03/26 12:10:11;;;;;;;15.80;14.05;;;18.60;88.80;;;;;;5048747;28;20021;-63
2022/03/26 12:12:50;;;;;;;20.58;15.95;;;18.70;90.10;;;;;;5044877;28;20245;-63
2022/03/26 12:15:16;;;;;;;20.30;16.30;;;18.70;87.30;;;;;;5038862;28;20021;-65
2022/03/26 12:18:08;;;;;;;24.50;16.63;;;18.70;88.50;;;;;;5042926;28;20390;-63
2022/03/26 12:20:35;;;;;;;30.65;17.58;;;18.60;86.80;;;;;;5049213;28;20087;-63
2022/03/26 12:23:02;;;;;;;20.83;18.63;;;18.50;88.10;;;;;;5040835;28;20051;-63
2022/03/26 12:25:51;;;;;;;22.38;17.73;;;18.60;86.20;;;;;;5039758;28;20116;-62
2022/03/26 12:28:26;;;;;;;24.90;18.98;;;18.60;86.90;;;;;;5049563;28;20491;-64
2022/03/26 12:30:54;;;;;;;20.73;18.55;;;18.50;86.30;;;;;;5049123;28;20084;-63
2022/03/26 12:33:22;;;;;;;25.08;20.85;;;18.40;86.40;;;;;;5039781;28;20060;-63
2022/03/26 12:35:50;;;;;;;20.80;18.70;;;18.50;86.20;;;;;;5042802;28;20029;-62
2022/03/26 12:38:18;;;;;;;24.05;19.45;;;18.60;86.10;;;;;;5050386;28;20017;-61
2022/03/26 12:41:03;;;;;;;21.92;19.48;;;18.70;85.50;;;;;;5049806;28;20024;-63
2022/03/26 12:43:29;;;;;;;22.58;19.50;;;18.70;86.10;;;;;;5037471;28;20026;-63
2022/03/26 12:45:58;;;;;;;22.67;20.08;;;18.70;86.60;;;;;;5040456;28;20029;-63